Time;durP1;ratioP1;P1;durP2;ratioP2;P2;SDS_P1;SDS_P2;PMS_P1;PMS_P2;Temp;Humidity;BMP_temperature;BMP_pressure;BME280_temperature;BME280_humidity;BME280_pressure;Samples;Min_cycle;Max_cycle;Signal;HPM_P1;HPM_P2
2023/01/04 00:01:10;;;;;;;16.20;10.03;;;;;;;6.40;100.00;97988.28;4990155;28;20689;-62
2023/01/04 00:03:37;;;;;;;14.33;9.53;;;;;;;6.41;100.00;97983.88;4991319;28;20201;-61
2023/01/04 00:06:07;;;;;;;12.43;8.33;;;;;;;6.40;100.00;97990.03;4995049;28;20224;-61
2023/01/04 00:08:34;;;;;;;17.27;11.47;;;;;;;6.43;100.00;97985.47;4994992;28;20196;-62
2023/01/04 00:11:01;;;;;;;14.43;10.33;;;;;;;6.37;100.00;97975.31;4993341;28;20213;-62
2023/01/04 00:13:28;;;;;;;13.27;9.53;;;;;;;6.38;100.00;97981.38;4994708;28;20259;-61
2023/01/04 00:15:54;;;;;;;13.73;9.83;;;;;;;6.36;100.00;97978.84;4994248;28;20213;-61
2023/01/04 00:18:21;;;;;;;15.60;10.10;;;;;;;6.38;100.00;97974.34;4994544;28;20213;-61
2023/01/04 00:20:47;;;;;;;15.80;10.90;;;;;;;6.35;100.00;97968.41;4994266;28;20669;-61
2023/01/04 00:23:15;;;;;;;14.63;10.30;;;;;;;6.34;100.00;97966.75;4995071;28;20232;-62
2023/01/04 00:25:41;;;;;;;13.70;9.77;;;;;;;6.35;100.00;97969.28;4993844;28;20228;-62
2023/01/04 00:28:08;;;;;;;14.50;8.37;;;;;;;6.29;100.00;97956.47;4994554;28;20217;-62
2023/01/04 00:30:34;;;;;;;13.07;9.40;;;;;;;6.31;100.00;97957.22;4994321;28;20568;-61
2023/01/04 00:33:01;;;;;;;16.57;10.80;;;;;;;6.35;100.00;97950.03;4995155;28;20205;-61
2023/01/04 00:35:27;;;;;;;23.77;14.17;;;;;;;6.43;100.00;97953.09;4994919;28;20495;-62
2023/01/04 00:37:53;;;;;;;23.30;14.37;;;;;;;6.47;100.00;97944.09;4995068;28;20541;-62
2023/01/04 00:40:21;;;;;;;22.60;15.53;;;;;;;6.52;100.00;97942.03;4994353;28;20225;-62
2023/01/04 00:42:48;;;;;;;16.90;12.00;;;;;;;6.57;100.00;97940.00;4994852;28;20212;-61
2023/01/04 00:45:14;;;;;;;16.67;12.20;;;;;;;6.61;100.00;97946.81;5003406;28;20240;-62
2023/01/04 00:47:41;;;;;;;14.17;11.17;;;;;;;6.58;100.00;97957.50;5003720;28;20229;-62
2023/01/04 00:50:08;;;;;;;15.13;11.40;;;;;;;6.55;100.00;97954.19;5003954;28;20537;-61
2023/01/04 00:52:35;;;;;;;16.30;11.93;;;;;;;6.54;100.00;97950.72;5004136;28;20292;-61
2023/01/04 00:55:02;;;;;;;16.57;11.87;;;;;;;6.59;100.00;97950.47;5003798;28;20220;-62
2023/01/04 00:57:30;;;;;;;17.90;11.37;;;;;;;6.61;100.00;97952.06;5003955;28;20213;-62
2023/01/04 00:59:56;;;;;;;19.27;12.63;;;;;;;6.61;100.00;97951.19;5004076;28;20197;-61
2023/01/04 01:02:23;;;;;;;19.50;13.73;;;;;;;6.59;100.00;97947.81;5003740;28;20229;-61
2023/01/04 01:04:49;;;;;;;20.30;14.13;;;;;;;6.59;100.00;97959.16;5003828;28;20223;-63
2023/01/04 01:07:15;;;;;;;19.90;14.43;;;;;;;6.59;100.00;97947.81;5003310;28;20219;-62
2023/01/04 01:09:42;;;;;;;23.97;15.23;;;;;;;6.62;100.00;97953.75;5003743;28;20201;-61
2023/01/04 01:12:08;;;;;;;24.57;15.50;;;;;;;6.65;100.00;97953.59;5003461;28;20192;-62
2023/01/04 01:14:37;;;;;;;28.53;18.07;;;;;;;6.63;100.00;97952.81;5004081;28;20216;-61
2023/01/04 01:17:04;;;;;;;26.67;17.20;;;;;;;6.64;100.00;97953.66;5003097;28;20212;-61
2023/01/04 01:19:31;;;;;;;29.67;18.13;;;;;;;6.57;100.00;97955.78;5003362;28;20536;-63
2023/01/04 01:21:58;;;;;;;24.57;17.03;;;;;;;6.59;100.00;97959.16;5003613;28;20574;-62
2023/01/04 01:24:24;;;;;;;26.90;18.43;;;;;;;6.58;100.00;97962.75;5003227;28;20636;-62
2023/01/04 01:26:50;;;;;;;29.00;17.97;;;;;;;6.61;100.00;97956.47;5003577;28;20205;-62
2023/01/04 01:29:17;;;;;;;26.57;18.17;;;;;;;6.60;100.00;97960.88;5003609;28;20204;-62
2023/01/04 01:31:45;;;;;;;29.70;18.33;;;;;;;6.57;100.00;97961.03;5002794;28;20213;-62
2023/01/04 01:34:11;;;;;;;28.27;18.20;;;;;;;6.59;100.00;97956.53;5003619;28;20212;-63
2023/01/04 01:36:38;;;;;;;28.60;19.70;;;;;;;6.60;100.00;97954.75;5003193;28;20211;-62
2023/01/04 01:39:05;;;;;;;28.20;18.47;;;;;;;6.63;100.00;97968.56;5003352;28;20205;-62
2023/01/04 01:41:33;;;;;;;29.87;19.03;;;;;;;6.65;100.00;97969.34;5003589;28;20232;-62
2023/01/04 01:44:01;;;;;;;32.10;18.30;;;;;;;6.64;100.00;97962.38;4999497;28;20244;-63
2023/01/04 01:46:31;;;;;;;24.80;16.23;;;;;;;6.63;100.00;97963.31;4994724;28;20205;-63
2023/01/04 01:49:04;;;;;;;27.40;17.13;;;;;;;6.64;100.00;97967.66;4993459;28;20634;-61
2023/01/04 01:51:32;;;;;;;22.43;15.23;;;;;;;6.68;100.00;97961.28;4994255;28;20197;-61
2023/01/04 01:54:02;;;;;;;20.37;13.77;;;;;;;6.67;100.00;97970.09;4993400;28;20212;-63
2023/01/04 01:56:30;;;;;;;20.70;14.00;;;;;;;6.64;100.00;97970.28;4993497;28;20220;-62
2023/01/04 01:58:58;;;;;;;18.57;12.93;;;;;;;6.65;100.00;97974.59;4993682;28;20951;-63
2023/01/04 02:01:24;;;;;;;17.50;12.50;;;;;;;6.61;100.00;97980.97;4995650;28;20221;-62
2023/01/04 02:03:50;;;;;;;18.03;12.70;;;;;;;6.63;100.00;97976.47;4997736;28;20212;-63
2023/01/04 02:06:21;;;;;;;14.77;12.00;;;;;;;6.59;100.00;97972.31;4995477;28;20206;-63
2023/01/04 02:08:48;;;;;;;15.93;12.27;;;;;;;6.55;100.00;97978.69;4993694;28;20205;-63
2023/01/04 02:11:15;;;;;;;16.00;12.90;;;;;;;6.60;100.00;97970.53;4994016;28;20212;-64
2023/01/04 02:16:34;;;;;;;18.07;13.10;;;;;;;6.59;100.00;97964.41;4994405;28;21450;-64
2023/01/04 02:19:07;;;;;;;20.47;14.80;;;;;;;6.53;100.00;97959.50;4994908;28;20205;-62
2023/01/04 02:21:44;;;;;;;21.53;14.67;;;;;;;6.57;100.00;97965.44;4995150;28;20221;-64
2023/01/04 02:24:34;;;;;;;20.37;14.37;;;;;;;6.47;100.00;97965.13;4993309;28;20209;-61
2023/01/04 02:27:29;;;;;;;19.77;13.97;;;;;;;6.54;100.00;97968.25;4992346;28;20212;-63
2023/01/04 02:30:28;;;;;;;19.30;14.00;;;;;;;6.56;100.00;97967.22;4995152;28;20213;-61
2023/01/04 02:33:05;;;;;;;21.43;15.10;;;;;;;6.56;100.00;97969.84;4962452;28;20213;-62
2023/01/04 02:35:36;;;;;;;21.57;15.00;;;;;;;6.59;100.00;97971.47;4992763;28;20259;-62
2023/01/04 02:38:09;;;;;;;22.10;15.00;;;;;;;6.60;100.00;97979.25;4992383;28;20201;-60
2023/01/04 02:40:42;;;;;;;20.77;15.23;;;;;;;6.51;100.00;97958.78;4992186;28;20193;-62
2023/01/04 02:46:01;;;;;;;19.67;16.27;;;;;;;6.44;100.00;97941.66;5001817;28;21369;-61
2023/01/04 02:51:27;;;;;;;21.80;15.60;;;;;;;6.51;100.00;97940.38;5002080;28;20316;-61
2023/01/04 02:53:54;;;;;;;23.60;17.60;;;;;;;6.49;100.00;97934.34;5001257;28;20208;-62
2023/01/04 02:56:34;;;;;;;22.30;16.40;;;;;;;6.50;100.00;97938.66;5001848;28;20205;-62
2023/01/04 02:59:11;;;;;;;23.67;16.73;;;;;;;6.58;100.00;97946.13;5001182;28;20216;-63
2023/01/04 03:07:28;;;;;;;47.53;15.63;;;;;;;6.44;100.00;97965.31;5001519;28;20208;-63
2023/01/04 03:09:58;;;;;;;35.70;15.80;;;;;;;6.41;100.00;97966.28;5000407;28;20207;-63
2023/01/04 03:12:31;;;;;;;23.50;15.13;;;;;;;6.42;100.00;97964.53;5001376;28;20196;-62
2023/01/04 03:15:03;;;;;;;42.53;15.33;;;;;;;6.34;100.00;97956.25;5000922;28;20213;-63
2023/01/04 03:17:33;;;;;;;27.97;15.20;;;;;;;6.31;100.00;97954.59;5001350;28;20208;-61
2023/01/04 03:20:02;;;;;;;23.43;14.17;;;;;;;6.29;100.00;97945.13;5001318;28;20213;-60
2023/01/04 03:36:28;;;;;;;27.33;15.53;;;;;;;6.33;100.00;97936.16;5001267;28;20216;-62
2023/01/04 03:50:06;;;;;;;16.27;12.60;;;;;;;6.05;100.00;97901.84;4992902;28;20207;-63
2023/01/04 03:52:35;;;;;;;16.20;12.50;;;;;;;5.98;100.00;97902.19;4993467;28;20205;-63
2023/01/04 03:55:03;;;;;;;20.23;13.70;;;;;;;5.88;100.00;97895.72;4992762;28;20208;-64
2023/01/04 03:57:30;;;;;;;18.60;13.77;;;;;;;5.90;100.00;97901.75;4996542;28;20205;-63
2023/01/04 04:00:00;;;;;;;18.97;13.23;;;;;;;5.90;100.00;97896.50;4991394;28;20197;-62
2023/01/04 04:02:29;;;;;;;17.73;13.20;;;;;;;5.85;100.00;97903.72;4992154;28;20221;-62
2023/01/04 04:10:26;;;;;;;17.97;12.97;;;;;;;5.76;100.00;97898.97;4995445;28;20228;-63
2023/01/04 04:12:52;;;;;;;15.80;12.57;;;;;;;5.74;100.00;97894.75;4993974;28;20212;-62
2023/01/04 04:15:19;;;;;;;17.73;12.80;;;;;;;5.72;100.00;97896.59;4992177;28;20216;-64
2023/01/04 04:17:45;;;;;;;15.57;11.87;;;;;;;5.79;100.00;97901.44;4992116;28;20205;-62
2023/01/04 04:20:12;;;;;;;17.53;14.20;;;;;;;5.75;100.00;97907.78;4991605;28;20213;-63
2023/01/04 04:22:38;;;;;;;16.37;12.53;;;;;;;5.77;100.00;97903.31;4992184;28;20237;-63
2023/01/04 04:25:07;;;;;;;18.00;13.37;;;;;;;5.72;100.00;97902.69;4990467;28;20251;-62
2023/01/04 04:27:34;;;;;;;25.37;13.30;;;;;;;5.70;100.00;97911.59;4990832;28;20201;-63
2023/01/04 04:30:02;;;;;;;23.13;13.00;;;;;;;5.73;100.00;97908.81;4990995;28;20206;-61
2023/01/04 04:32:28;;;;;;;22.03;13.37;;;;;;;5.58;100.00;97925.34;4991414;28;20528;-62
2023/01/04 04:34:55;;;;;;;21.13;13.43;;;;;;;5.58;100.00;97905.22;4990599;28;20205;-62
2023/01/04 04:37:21;;;;;;;33.80;14.13;;;;;;;5.48;100.00;97919.75;4990793;28;20664;-62
2023/01/04 04:39:48;;;;;;;26.77;12.97;;;;;;;5.43;100.00;97919.13;4990602;28;20205;-62
2023/01/04 04:42:15;;;;;;;34.50;13.90;;;;;;;5.40;100.00;97919.31;4990710;28;20236;-61
2023/01/04 04:44:41;;;;;;;30.03;12.57;;;;;;;5.36;100.00;97920.38;4990602;28;20233;-63
2023/01/04 04:47:08;;;;;;;19.43;12.87;;;;;;;5.31;100.00;97918.03;4990771;28;20213;-63
2023/01/04 04:49:34;;;;;;;20.80;13.87;;;;;;;5.28;100.00;97914.72;4990690;28;20275;-63
2023/01/04 04:52:01;;;;;;;17.63;12.37;;;;;;;5.26;100.00;97913.94;4993551;28;20220;-63
2023/01/04 04:54:27;;;;;;;20.23;12.17;;;;;;;5.20;100.00;97909.84;4994071;28;20221;-62
2023/01/04 04:56:53;;;;;;;16.87;13.97;;;;;;;5.29;100.00;97913.75;4994525;28;20209;-63
2023/01/04 04:59:21;;;;;;;23.00;16.43;;;;;;;5.55;100.00;97920.28;4994710;28;20220;-62
2023/01/04 05:01:48;;;;;;;22.73;16.60;;;;;;;5.73;100.00;97924.56;4993531;28;20692;-64
2023/01/04 05:04:18;;;;;;;23.07;17.37;;;;;;;5.87;100.00;97924.69;4994024;28;20228;-63
2023/01/04 05:06:45;;;;;;;21.37;16.77;;;;;;;5.93;100.00;97919.94;4994600;28;20216;-62
2023/01/04 05:09:12;;;;;;;22.50;16.93;;;;;;;5.94;100.00;97923.44;4993919;28;20213;-61
2023/01/04 05:14:24;;;;;;;19.73;15.57;;;;;;;5.99;100.00;97929.25;4993908;28;20216;-61
2023/01/04 05:16:50;;;;;;;19.10;14.33;;;;;;;5.96;100.00;97930.28;4993832;28;20213;-62
2023/01/04 05:19:17;;;;;;;18.40;14.53;;;;;;;5.99;100.00;97927.47;4994058;28;20209;-63
2023/01/04 05:21:43;;;;;;;17.37;13.33;;;;;;;6.04;100.00;97926.38;4993650;28;20237;-63
2023/01/04 05:24:11;;;;;;;14.47;12.83;;;;;;;6.05;100.00;97921.06;4993353;28;20209;-61
2023/01/04 05:26:38;;;;;;;14.97;12.77;;;;;;;6.11;100.00;97927.75;4993909;28;20209;-63
2023/01/04 05:29:04;;;;;;;15.77;12.67;;;;;;;6.13;100.00;97924.09;4993596;28;20209;-63
2023/01/04 05:31:31;;;;;;;14.30;12.40;;;;;;;6.18;100.00;97921.22;4993593;28;20228;-62
2023/01/04 05:33:57;;;;;;;14.77;12.20;;;;;;;6.22;100.00;97920.13;4993899;28;20626;-62
2023/01/04 05:36:24;;;;;;;12.90;11.47;;;;;;;6.26;100.00;97917.25;4993134;28;20652;-62
2023/01/04 05:38:50;;;;;;;13.03;11.10;;;;;;;6.27;100.00;97923.34;4993696;28;20209;-64
2023/01/04 05:44:01;;;;;;;12.37;11.03;;;;;;;6.25;100.00;97922.56;4996857;28;20302;-63
2023/01/04 05:46:27;;;;;;;13.30;11.90;;;;;;;6.22;100.00;97922.75;5003298;28;20212;-62
2023/01/04 05:48:55;;;;;;;12.10;10.80;;;;;;;6.20;100.00;97924.63;5002667;28;20207;-62
2023/01/04 05:51:22;;;;;;;13.57;11.33;;;;;;;6.18;100.00;97915.97;5003377;28;20563;-63
2023/01/04 05:53:48;;;;;;;13.13;11.43;;;;;;;6.23;100.00;97927.94;5002692;28;20201;-62
2023/01/04 05:56:15;;;;;;;14.20;11.10;;;;;;;6.25;100.00;97925.22;5002447;28;20223;-61
2023/01/04 05:58:41;;;;;;;12.83;10.77;;;;;;;6.31;100.00;97916.97;5002521;28;20208;-63
2023/01/04 06:01:07;;;;;;;12.40;11.10;;;;;;;6.35;100.00;97910.63;5003082;28;20553;-63
2023/01/04 06:03:34;;;;;;;12.17;10.87;;;;;;;6.40;100.00;97906.81;5001250;28;20232;-64
2023/01/04 06:06:02;;;;;;;12.20;10.90;;;;;;;6.44;100.00;97907.50;5002569;28;20224;-64
2023/01/04 06:08:28;;;;;;;13.13;11.60;;;;;;;6.46;100.00;97914.34;5002099;28;20216;-61
2023/01/04 06:10:55;;;;;;;11.63;10.50;;;;;;;6.49;100.00;97910.69;5002603;28;20208;-63
2023/01/04 06:13:21;;;;;;;11.53;10.33;;;;;;;6.49;100.00;97910.69;5002409;28;20231;-63
2023/01/04 06:15:48;;;;;;;11.93;10.67;;;;;;;6.52;100.00;97909.69;5002618;28;20200;-62
2023/01/04 06:18:14;;;;;;;11.73;10.53;;;;;;;6.48;100.00;97915.09;5002225;28;20216;-64
2023/01/04 06:20:42;;;;;;;11.97;10.63;;;;;;;6.45;100.00;97915.28;5002298;28;20213;-63
2023/01/04 06:23:10;;;;;;;12.40;10.57;;;;;;;6.44;100.00;97916.22;5001576;28;20239;-64
2023/01/04 06:25:37;;;;;;;10.03;9.03;;;;;;;6.46;100.00;97916.13;5002207;28;20228;-61
2023/01/04 06:28:04;;;;;;;12.10;10.80;;;;;;;6.42;100.00;97919.84;5002473;28;20207;-64
2023/01/04 06:30:30;;;;;;;12.03;10.83;;;;;;;6.38;100.00;97920.94;5002701;28;20200;-62
2023/01/04 06:32:57;;;;;;;10.80;9.70;;;;;;;6.37;100.00;97916.66;5001454;28;20201;-63
2023/01/04 06:35:23;;;;;;;10.23;9.23;;;;;;;6.29;100.00;97918.84;5002509;28;20209;-63
2023/01/04 06:37:50;;;;;;;10.00;9.00;;;;;;;6.30;100.00;97920.56;5001771;28;20208;-63
2023/01/04 06:40:17;;;;;;;10.67;9.57;;;;;;;6.29;100.00;97917.06;5001020;28;20216;-62
2023/01/04 06:42:46;;;;;;;11.00;9.33;;;;;;;6.27;100.00;97913.66;5001929;28;20538;-62
2023/01/04 06:45:13;;;;;;;10.33;9.23;;;;;;;6.25;100.00;97919.94;5001915;28;20240;-63
2023/01/04 06:47:40;;;;;;;10.03;9.03;;;;;;;6.24;100.00;97920.88;5001770;28;20201;-62
2023/01/04 06:50:07;;;;;;;11.20;10.00;;;;;;;6.24;100.00;97915.63;5001917;28;20304;-62
2023/01/04 06:52:34;;;;;;;12.40;10.33;;;;;;;6.24;100.00;97913.00;5002237;28;20216;-62
2023/01/04 06:55:00;;;;;;;10.83;9.60;;;;;;;6.18;100.00;97913.34;5001317;28;20201;-63
2023/01/04 06:57:29;;;;;;;10.80;9.70;;;;;;;6.15;100.00;97916.16;5001845;28;20212;-62
2023/01/04 06:59:56;;;;;;;11.37;10.17;;;;;;;6.10;100.00;97918.16;5002055;28;20533;-61
2023/01/04 07:02:22;;;;;;;10.60;9.50;;;;;;;6.08;100.00;97923.53;5001822;28;20247;-64
2023/01/04 07:04:49;;;;;;;10.13;9.13;;;;;;;6.03;100.00;97927.31;5002089;28;20223;-63
2023/01/04 07:07:15;;;;;;;10.90;9.80;;;;;;;6.05;100.00;97922.84;5001858;28;20211;-61
2023/01/04 07:09:42;;;;;;;10.63;9.53;;;;;;;6.04;100.00;97929.88;5001657;28;20245;-62
2023/01/04 07:12:08;;;;;;;11.60;9.47;;;;;;;6.03;100.00;97924.69;5001716;28;20208;-63
2023/01/04 07:14:36;;;;;;;11.43;9.50;;;;;;;6.07;100.00;97934.09;5001961;28;20200;-61
2023/01/04 07:17:02;;;;;;;10.27;9.27;;;;;;;6.08;100.00;97933.16;5001289;28;20209;-62
2023/01/04 07:19:29;;;;;;;10.90;9.87;;;;;;;6.10;100.00;97923.41;5001882;28;20545;-61
2023/01/04 07:21:57;;;;;;;11.03;9.63;;;;;;;6.17;100.00;97924.78;5001892;28;20212;-62
2023/01/04 07:24:24;;;;;;;11.03;9.90;;;;;;;6.18;100.00;97926.47;5001479;28;20299;-63
2023/01/04 07:26:50;;;;;;;10.17;9.17;;;;;;;6.22;100.00;97928.00;5001362;28;20219;-62
2023/01/04 07:29:17;;;;;;;10.70;9.60;;;;;;;6.31;100.00;97922.22;5001740;28;20220;-61
2023/01/04 07:31:46;;;;;;;10.00;9.00;;;;;;;6.40;100.00;97927.84;5001173;28;20224;-63
2023/01/04 07:34:13;;;;;;;10.70;9.60;;;;;;;6.47;100.00;97923.94;5001236;28;20220;-62
2023/01/04 07:36:40;;;;;;;10.60;9.50;;;;;;;6.52;100.00;97925.47;5001412;28;20251;-62
2023/01/04 07:39:09;;;;;;;10.97;9.30;;;;;;;6.62;100.00;97937.13;5000455;28;20552;-61
2023/01/04 07:41:36;;;;;;;10.20;9.10;;;;;;;6.64;100.00;97938.72;5000728;28;20503;-63
2023/01/04 07:44:02;;;;;;;10.40;9.40;;;;;;;6.78;100.00;97932.69;4996267;28;20236;-61
2023/01/04 07:46:29;;;;;;;10.27;9.20;;;;;;;6.87;100.00;97932.16;4991803;28;20205;-61
2023/01/04 07:48:56;;;;;;;10.13;9.03;;;;;;;6.98;100.00;97940.25;4990949;28;20239;-60
2023/01/04 07:51:23;;;;;;;9.63;8.73;;;;;;;7.08;100.00;97941.44;4991291;28;20217;-61
2023/01/04 07:53:50;;;;;;;10.17;9.13;;;;;;;7.15;100.00;97941.91;4991776;28;21224;-61
2023/01/04 07:56:16;;;;;;;10.20;9.20;;;;;;;7.19;100.00;97944.25;4991626;28;20209;-61
2023/01/04 07:58:43;;;;;;;9.67;8.77;;;;;;;7.21;100.00;97937.13;4991604;28;20208;-61
2023/01/04 08:01:11;;;;;;;10.07;9.07;;;;;;;7.25;100.00;97948.31;4991723;28;20205;-60
2023/01/04 08:03:38;;;;;;;9.13;8.27;;;;;;;7.36;100.00;97940.66;4991323;28;20243;-61
2023/01/04 08:06:07;;;;;;;8.80;7.90;;;;;;;7.43;100.00;97949.88;4994098;28;20208;-60
2023/01/04 08:08:34;;;;;;;8.83;7.93;;;;;;;7.46;100.00;97958.44;4996073;28;20220;-61
2023/01/04 08:11:01;;;;;;;8.83;7.90;;;;;;;7.58;100.00;97962.09;4991024;28;20634;-63
2023/01/04 08:13:28;;;;;;;7.57;6.87;;;;;;;7.69;100.00;97957.03;4991583;28;20579;-62
2023/01/04 08:15:55;;;;;;;8.10;7.30;;;;;;;7.73;100.00;97955.91;4991823;28;20213;-61
2023/01/04 08:18:22;;;;;;;8.67;7.87;;;;;;;7.77;100.00;97960.03;4990964;28;20244;-62
2023/01/04 08:20:48;;;;;;;8.20;7.40;;;;;;;7.91;100.00;97965.31;4991215;28;20227;-61
2023/01/04 08:23:16;;;;;;;7.83;7.07;;;;;;;7.98;100.00;97956.09;4991591;28;20233;-61
2023/01/04 08:25:43;;;;;;;7.50;6.80;;;;;;;7.99;100.00;97957.78;4992060;28;20209;-62
2023/01/04 08:28:09;;;;;;;8.23;6.93;;;;;;;8.00;100.00;97956.88;4994993;28;20213;-61
2023/01/04 08:30:36;;;;;;;6.13;5.63;;;;;;;8.11;100.00;97950.94;4994964;28;20209;-60
2023/01/04 08:33:02;;;;;;;9.57;8.27;;;;;;;8.19;100.00;97947.78;4994615;28;20703;-61
2023/01/04 08:35:29;;;;;;;7.40;6.70;;;;;;;8.29;100.00;97954.22;4994431;28;20193;-62
2023/01/04 08:37:55;;;;;;;6.77;6.17;;;;;;;8.37;100.00;97946.66;4994573;28;20742;-63
2023/01/04 08:40:23;;;;;;;7.07;6.37;;;;;;;8.38;100.00;97951.00;4994060;28;20231;-62
2023/01/04 08:42:50;;;;;;;7.17;6.50;;;;;;;8.39;100.00;97952.69;4994516;28;20304;-62
2023/01/04 08:45:16;;;;;;;7.27;6.63;;;;;;;8.42;100.00;97949.84;5002911;28;20244;-63
2023/01/04 08:47:43;;;;;;;7.13;6.10;;;;;;;8.43;100.00;97938.38;5004344;28;20549;-62
2023/01/04 08:50:15;;;;;;;6.53;5.97;;;;;;;8.39;100.00;97945.63;5004386;28;20556;-62
2023/01/04 08:52:42;;;;;;;6.83;6.20;;;;;;;8.44;100.00;97954.06;5004639;28;20205;-61
2023/01/04 08:55:09;;;;;;;6.73;6.17;;;;;;;8.47;100.00;97947.75;5004170;28;20205;-61
2023/01/04 08:57:37;;;;;;;6.70;6.10;;;;;;;8.46;100.00;97948.72;5004110;28;20212;-61
2023/01/04 09:00:05;;;;;;;7.00;6.30;;;;;;;8.43;100.00;97952.38;5004083;28;20212;-63
2023/01/04 09:02:31;;;;;;;6.60;6.00;;;;;;;8.57;100.00;97953.31;5004395;28;20204;-62
2023/01/04 09:05:01;;;;;;;7.13;6.43;;;;;;;8.52;100.00;97952.75;5004138;28;20545;-62
2023/01/04 09:07:28;;;;;;;6.37;5.80;;;;;;;8.50;100.00;97958.94;5007840;28;20298;-65
2023/01/04 09:09:55;;;;;;;6.33;5.83;;;;;;;8.49;100.00;97964.34;5005164;28;20292;-62
2023/01/04 09:12:22;;;;;;;6.57;6.00;;;;;;;8.49;100.00;97953.78;5004794;28;20234;-62
2023/01/04 09:14:50;;;;;;;6.43;5.93;;;;;;;8.55;100.00;97952.53;5004989;28;20209;-63
2023/01/04 09:17:16;;;;;;;7.10;6.40;;;;;;;8.53;100.00;97960.56;5005324;28;20304;-62
2023/01/04 09:19:43;;;;;;;6.40;5.90;;;;;;;8.56;100.00;97956.88;5004770;28;20196;-63
2023/01/04 09:22:09;;;;;;;6.60;6.00;;;;;;;8.59;100.00;97951.41;5005137;28;20215;-62
2023/01/04 09:24:36;;;;;;;7.80;7.10;;;;;;;8.61;100.00;97944.25;5004917;28;20232;-62
2023/01/04 09:27:03;;;;;;;6.93;6.30;;;;;;;8.61;100.00;97942.44;5006173;28;20555;-61
2023/01/04 09:29:30;;;;;;;7.30;6.60;;;;;;;8.65;100.00;97946.56;5006794;28;20220;-62
2023/01/04 09:31:58;;;;;;;7.20;6.50;;;;;;;8.67;100.00;97944.69;5008732;28;20223;-62
2023/01/04 09:34:24;;;;;;;6.87;6.27;;;;;;;8.67;100.00;97947.34;5009782;28;20609;-63
2023/01/04 09:36:51;;;;;;;7.30;6.60;;;;;;;8.72;100.00;97947.88;5010324;28;20205;-62
2023/01/04 09:39:17;;;;;;;7.33;6.37;;;;;;;8.75;100.00;97952.94;5011602;28;20205;-63
2023/01/04 09:41:46;;;;;;;7.30;6.60;;;;;;;8.74;100.00;97953.91;5009541;28;20395;-63
2023/01/04 09:44:18;;;;;;;7.60;6.90;;;;;;;8.73;100.00;97940.81;5005850;28;20239;-62
2023/01/04 09:46:48;;;;;;;7.10;6.50;;;;;;;8.71;100.00;97945.34;5004738;28;20205;-66
2023/01/04 09:49:20;;;;;;;7.40;6.70;;;;;;;8.74;100.00;97946.00;5003329;28;20538;-64
2023/01/04 09:51:53;;;;;;;7.00;6.37;;;;;;;8.70;100.00;97949.78;5003853;28;20196;-62
2023/01/04 09:54:23;;;;;;;6.70;6.10;;;;;;;8.71;100.00;97946.19;5002790;28;20208;-62
2023/01/04 09:56:51;;;;;;;7.50;6.80;;;;;;;8.72;100.00;97953.13;5003320;28;20196;-62
2023/01/04 09:59:29;;;;;;;5.83;5.33;;;;;;;8.73;100.00;97949.56;5002893;28;20209;-63
2023/01/04 10:01:59;;;;;;;6.87;6.20;;;;;;;8.74;100.00;97951.25;5004504;28;20204;-62
2023/01/04 10:04:36;;;;;;;7.37;6.67;;;;;;;8.72;100.00;97942.59;5004403;28;20665;-61
2023/01/04 10:07:03;;;;;;;6.63;6.03;;;;;;;8.73;100.00;97938.16;5004482;28;20212;-62
2023/01/04 10:09:29;;;;;;;6.20;5.70;;;;;;;8.75;100.00;97937.13;5004960;28;20212;-62
2023/01/04 10:12:08;;;;;;;6.87;6.27;;;;;;;8.82;100.00;97934.94;5004759;28;20222;-62
2023/01/04 10:14:50;;;;;;;6.60;6.10;;;;;;;8.86;100.00;97929.34;5004439;28;20201;-63
2023/01/04 10:17:26;;;;;;;6.10;5.53;;;;;;;8.96;100.00;97925.16;5004653;28;20200;-62
2023/01/04 10:20:04;;;;;;;6.77;6.07;;;;;;;8.99;100.00;97921.47;5001908;28;20216;-62
2023/01/04 10:22:38;;;;;;;6.27;5.77;;;;;;;9.03;100.00;97924.75;5003314;28;20211;-63
2023/01/04 10:25:18;;;;;;;6.40;5.90;;;;;;;9.06;100.00;97919.28;5001219;28;20231;-62
2023/01/04 10:27:53;;;;;;;6.37;5.87;;;;;;;9.10;100.00;97915.50;5002873;28;20184;-62
2023/01/04 10:30:30;;;;;;;6.37;5.80;;;;;;;9.08;100.00;97910.28;5002726;28;20244;-62
2023/01/04 10:33:04;;;;;;;6.20;5.70;;;;;;;9.12;100.00;97908.28;5002180;28;20196;-63
2023/01/04 10:35:33;;;;;;;6.03;5.53;;;;;;;9.15;100.00;97905.44;5002354;28;20211;-63
2023/01/04 10:38:02;;;;;;;6.27;5.47;;;;;;;9.20;100.00;97906.00;5002176;28;20220;-61
2023/01/04 10:40:29;;;;;;;5.87;5.37;;;;;;;9.19;100.00;97904.28;5002057;28;20629;-62
2023/01/04 10:42:59;;;;;;;6.07;5.57;;;;;;;9.18;100.00;97902.59;5002578;28;20637;-61
2023/01/04 10:45:32;;;;;;;5.87;5.37;;;;;;;9.22;100.00;97890.88;5002675;28;20691;-61
2023/01/04 10:48:02;;;;;;;6.13;5.63;;;;;;;9.22;100.00;97877.69;5003207;28;20575;-61
2023/01/04 10:50:36;;;;;;;5.47;5.03;;;;;;;9.30;100.00;97885.94;5002890;28;20209;-60
2023/01/04 10:53:04;;;;;;;5.83;5.33;;;;;;;9.29;100.00;97884.25;5002077;28;20219;-64
2023/01/04 10:55:36;;;;;;;5.40;4.97;;;;;;;9.29;100.00;97869.25;5001468;28;20279;-63
2023/01/04 10:58:08;;;;;;;5.43;4.93;;;;;;;9.32;100.00;97871.69;5002771;28;20200;-64
2023/01/04 11:00:38;;;;;;;5.80;5.30;;;;;;;9.41;100.00;97857.84;5000823;28;21305;-62
2023/01/04 11:03:09;;;;;;;6.10;5.50;;;;;;;9.45;100.00;97856.69;5001378;28;20201;-62
2023/01/04 11:05:38;;;;;;;5.67;5.20;;;;;;;9.51;100.00;97858.06;5000765;28;20219;-63
2023/01/04 11:08:08;;;;;;;6.30;5.80;;;;;;;9.49;100.00;97859.97;5001822;28;20552;-63
2023/01/04 11:10:38;;;;;;;6.43;5.83;;;;;;;9.50;100.00;97845.78;4999242;28;20223;-63
2023/01/04 11:13:04;;;;;;;6.13;5.63;;;;;;;9.61;100.00;97855.59;5000559;28;21061;-62
2023/01/04 11:15:31;;;;;;;6.30;5.70;;;;;;;9.62;100.00;97844.09;5000116;28;20216;-62
2023/01/04 11:17:58;;;;;;;5.57;5.07;;;;;;;9.60;100.00;97848.66;5000546;28;20212;-62
2023/01/04 11:20:25;;;;;;;5.50;5.10;;;;;;;9.62;100.00;97841.47;5000364;28;20205;-62
2023/01/04 11:22:56;;;;;;;6.13;4.87;;;;;;;9.62;100.00;97844.09;4982740;28;20220;-62
2023/01/04 11:25:23;;;;;;;5.77;5.27;;;;;;;9.58;100.00;97846.13;4999723;28;20208;-62
2023/01/04 11:27:52;;;;;;;5.90;5.30;;;;;;;9.67;100.00;97842.81;4999921;28;20220;-63
2023/01/04 11:30:20;;;;;;;5.80;5.20;;;;;;;9.63;100.00;97841.38;5000598;28;20211;-62
2023/01/04 11:32:52;;;;;;;6.20;5.70;;;;;;;9.59;100.00;97845.16;5001507;28;20220;-61
2023/01/04 11:35:37;;;;;;;5.40;5.00;;;;;;;9.57;100.00;97841.78;5000005;28;20197;-62
2023/01/04 11:38:11;;;;;;;4.87;4.47;;;;;;;9.66;100.00;97829.72;5001555;28;20211;-62
2023/01/04 11:40:38;;;;;;;5.47;4.97;;;;;;;9.60;100.00;97820.41;5000660;28;20212;-63
2023/01/04 11:43:15;;;;;;;5.63;5.13;;;;;;;9.65;100.00;97817.47;5000697;28;20243;-61
2023/01/04 11:45:53;;;;;;;6.00;5.50;;;;;;;9.68;100.00;97812.81;5001128;28;20219;-62
2023/01/04 11:48:19;;;;;;;5.20;4.80;;;;;;;9.72;100.00;97792.31;5001217;28;20196;-62
2023/01/04 11:50:47;;;;;;;5.53;5.03;;;;;;;9.64;100.00;97789.34;5000775;28;20224;-62
2023/01/04 11:53:31;;;;;;;5.53;5.13;;;;;;;9.67;100.00;97797.09;5001478;28;20205;-63
2023/01/04 11:56:19;;;;;;;5.97;5.47;;;;;;;9.65;100.00;97794.53;4998549;28;20197;-62
2023/01/04 11:59:04;;;;;;;5.13;4.73;;;;;;;9.61;100.00;97795.72;5000624;28;20217;-62
2023/01/04 12:01:31;;;;;;;5.53;5.10;;;;;;;9.60;100.00;97794.00;5004107;28;20215;-63
2023/01/04 12:03:59;;;;;;;4.93;4.53;;;;;;;9.62;100.00;97792.13;5004948;28;20239;-63
2023/01/04 12:06:35;;;;;;;5.60;5.13;;;;;;;9.59;100.00;97799.41;5007172;28;20200;-62
2023/01/04 12:09:04;;;;;;;5.43;5.03;;;;;;;9.61;100.00;97795.72;5005240;28;20204;-63
2023/01/04 12:11:32;;;;;;;5.13;4.63;;;;;;;9.58;100.00;97795.09;5007180;28;20216;-62
2023/01/04 12:13:59;;;;;;;5.13;4.73;;;;;;;9.64;100.00;97794.63;5006918;28;20200;-62
2023/01/04 12:16:43;;;;;;;4.83;4.37;;;;;;;9.69;100.00;97782.81;5006783;28;20200;-63
2023/01/04 12:19:13;;;;;;;5.27;4.60;;;;;;;9.70;100.00;97789.78;5004985;28;20216;-62
2023/01/04 12:21:41;;;;;;;5.10;4.70;;;;;;;9.77;100.00;97785.75;5005247;28;20220;-64